Time;durP1;ratioP1;P1;durP2;ratioP2;P2;SDS_P1;SDS_P2;PMS_P1;PMS_P2;Temp;Humidity;BMP_temperature;BMP_pressure;BME280_temperature;BME280_humidity;BME280_pressure;Samples;Min_cycle;Max_cycle;Signal;HPM_P1;HPM_P2
2022/09/08 00:01:17;;;;;;;4.20;2.42;;;;;;;18.79;70.26;100794.63;4951371;28;20047;-72
2022/09/08 00:03:45;;;;;;;6.97;2.67;;;;;;;18.71;70.33;100791.59;4951840;28;20048;-73
2022/09/08 00:06:16;;;;;;;8.77;2.88;;;;;;;18.69;70.72;100810.41;4952076;28;20051;-72
2022/09/08 00:08:45;;;;;;;6.28;2.28;;;;;;;18.68;71.63;100797.13;4952526;28;20046;-72
2022/09/08 00:11:21;;;;;;;5.43;2.60;;;;;;;18.65;71.92;100798.19;4949717;28;20048;-71
2022/09/08 00:13:50;;;;;;;7.18;2.78;;;;;;;18.62;72.78;100795.72;4951719;28;20971;-72
2022/09/08 00:16:18;;;;;;;9.65;2.90;;;;;;;18.59;73.01;100783.44;4950705;28;20770;-71
2022/09/08 00:18:50;;;;;;;6.45;2.85;;;;;;;18.55;73.55;100776.59;4952177;28;20050;-72
2022/09/08 00:21:25;;;;;;;10.65;3.20;;;;;;;18.46;74.18;100767.34;4951112;28;20050;-73
2022/09/08 00:23:52;;;;;;;9.05;2.88;;;;;;;18.34;74.77;100769.97;4951070;28;20043;-73
2022/09/08 00:26:20;;;;;;;10.07;2.97;;;;;;;18.24;75.44;100770.56;4952013;28;20052;-73
2022/09/08 00:28:48;;;;;;;9.65;3.08;;;;;;;18.13;75.96;100765.06;4950688;28;20047;-75
2022/09/08 00:31:16;;;;;;;7.78;3.00;;;;;;;18.05;76.51;100765.53;4951324;28;20044;-75
2022/09/08 00:33:45;;;;;;;10.05;3.30;;;;;;;18.00;76.94;100762.31;4952105;28;20050;-75
2022/09/08 00:36:15;;;;;;;7.68;2.95;;;;;;;17.98;77.60;100759.72;4952273;28;20055;-76
2022/09/08 00:38:50;;;;;;;7.65;2.90;;;;;;;17.94;77.60;100750.19;4951086;28;20072;-76
2022/09/08 00:41:21;;;;;;;7.53;2.80;;;;;;;17.91;78.46;100754.81;4951077;28;20047;-77
2022/09/08 00:44:02;;;;;;;10.95;2.72;;;;;;;17.84;79.02;100749.88;4950508;28;20831;-76
2022/09/08 00:46:47;;;;;;;8.25;3.53;;;;;;;17.78;79.47;100738.75;4951474;28;20050;-72
2022/09/08 00:49:20;;;;;;;7.70;4.50;;;;;;;17.66;80.45;100719.88;4950835;28;20106;-73
2022/09/08 00:51:54;;;;;;;8.27;5.20;;;;;;;17.57;80.78;100720.47;4950874;28;20824;-73
2022/09/08 00:54:21;;;;;;;10.48;4.38;;;;;;;17.53;81.31;100722.47;4948366;28;20043;-73
2022/09/08 00:56:49;;;;;;;8.15;3.83;;;;;;;17.49;82.00;100717.41;4950336;28;20120;-74
2022/09/08 00:59:22;;;;;;;7.10;3.70;;;;;;;17.42;82.29;100732.06;4950607;28;20050;-73
2022/09/08 01:01:50;;;;;;;6.80;4.03;;;;;;;17.42;82.33;100734.75;4943200;28;20063;-73
2022/09/08 01:04:21;;;;;;;7.25;3.90;;;;;;;17.44;82.51;100739.00;4947368;28;20044;-74
2022/09/08 01:13:15;;;;;;;10.40;3.75;;;;;;;17.47;82.79;100706.88;4941546;28;20056;-73
2022/09/08 01:15:42;;;;;;;6.93;3.38;;;;;;;17.48;83.12;100707.69;4950986;28;20047;-73
2022/09/08 01:18:10;;;;;;;6.10;2.80;;;;;;;17.51;83.74;100712.84;4950003;28;20127;-75
2022/09/08 01:21:06;;;;;;;8.10;3.30;;;;;;;17.44;83.65;100704.38;4951713;28;20044;-75
2022/09/08 01:24:09;;;;;;;6.82;2.20;;;;;;;17.42;83.96;100689.44;4950985;28;20051;-75
2022/09/08 01:27:09;;;;;;;7.57;2.53;;;;;;;17.39;84.14;100709.16;4952158;28;20055;-77
2022/09/08 01:29:40;;;;;;;8.88;2.38;;;;;;;17.36;84.25;100707.50;4950957;28;20047;-76
2022/09/08 01:32:10;;;;;;;7.82;2.17;;;;;;;17.37;84.34;100708.38;4950022;28;20040;-76
2022/09/08 01:34:42;;;;;;;7.65;2.33;;;;;;;17.40;84.70;100713.50;4950746;28;20100;-76
2022/09/08 01:37:10;;;;;;;6.72;2.45;;;;;;;17.41;85.04;100714.38;4950825;28;20078;-76
2022/09/08 01:39:37;;;;;;;6.40;2.33;;;;;;;17.34;85.13;100706.75;4955051;28;20522;-75
2022/09/08 01:42:05;;;;;;;7.93;3.13;;;;;;;17.31;85.26;100706.06;4955957;28;20044;-77
2022/09/08 01:44:33;;;;;;;7.07;2.65;;;;;;;17.27;85.29;100709.88;4958138;28;20039;-77
2022/09/08 01:47:01;;;;;;;8.55;3.63;;;;;;;17.19;85.34;100702.34;4958087;28;20092;-76
2022/09/08 01:49:28;;;;;;;8.55;3.10;;;;;;;17.11;85.60;100693.97;4960169;28;20059;-78
2022/09/08 01:51:55;;;;;;;9.07;3.63;;;;;;;17.06;85.85;100696.91;4965097;28;20052;-78
2022/09/08 01:54:27;;;;;;;9.82;3.95;;;;;;;17.04;86.30;100691.66;4962955;28;20040;-77
2022/09/08 01:56:55;;;;;;;11.63;4.45;;;;;;;17.01;86.84;100681.22;4961134;28;20050;-77
2022/09/08 01:59:22;;;;;;;10.52;4.22;;;;;;;16.97;86.65;100676.16;4954548;28;20094;-78
2022/09/08 02:01:50;;;;;;;9.38;3.78;;;;;;;16.92;86.77;100677.25;4953112;28;20056;-77
2022/09/08 02:04:18;;;;;;;9.65;3.60;;;;;;;16.87;86.98;100676.69;4954082;28;20134;-77
2022/09/08 02:06:48;;;;;;;8.05;4.28;;;;;;;16.87;87.20;100676.69;4954635;28;20059;-77
2022/09/08 02:09:15;;;;;;;8.30;4.30;;;;;;;16.86;87.63;100668.75;4953448;28;20575;-77
2022/09/08 02:11:43;;;;;;;8.15;4.30;;;;;;;16.82;87.70;100668.09;4954161;28;20091;-76
2022/09/08 02:14:10;;;;;;;11.65;4.82;;;;;;;16.80;87.66;100669.16;4952936;28;20047;-76
2022/09/08 02:16:37;;;;;;;12.18;4.68;;;;;;;16.80;87.90;100663.81;4952339;28;20043;-75
2022/09/08 02:19:04;;;;;;;10.32;4.25;;;;;;;16.77;88.09;100655.06;4954250;28;20036;-76
2022/09/08 02:21:31;;;;;;;9.55;4.22;;;;;;;16.77;88.02;100654.22;4953959;28;20040;-76
2022/09/08 02:24:04;;;;;;;10.35;5.05;;;;;;;16.75;88.02;100658.78;4953214;28;20127;-77
2022/09/08 02:26:32;;;;;;;9.50;4.75;;;;;;;16.73;87.89;100648.22;4954069;28;20047;-76
2022/09/08 02:28:59;;;;;;;12.75;4.50;;;;;;;16.70;87.94;100652.84;4964336;28;20048;-77
2022/09/08 02:31:27;;;;;;;11.32;4.63;;;;;;;16.64;87.97;100653.22;4954386;28;20131;-76
2022/09/08 02:33:56;;;;;;;7.85;4.13;;;;;;;16.62;87.99;100648.00;4953374;28;20062;-75
2022/09/08 02:36:23;;;;;;;12.65;4.68;;;;;;;16.57;87.88;100642.06;4953145;28;20040;-76
2022/09/08 02:38:53;;;;;;;8.05;4.88;;;;;;;16.57;88.34;100648.28;4952791;28;20051;-76
2022/09/08 02:41:27;;;;;;;9.55;4.68;;;;;;;16.55;88.42;100642.16;4950905;28;20051;-75
2022/09/08 02:43:54;;;;;;;7.63;4.63;;;;;;;16.55;88.77;100646.63;4941622;28;20063;-74
2022/09/08 02:46:21;;;;;;;10.50;4.82;;;;;;;16.56;88.50;100640.34;4953549;28;20055;-76
2022/09/08 02:48:48;;;;;;;11.40;4.65;;;;;;;16.53;88.57;100636.06;4952956;28;20043;-76
2022/09/08 02:51:19;;;;;;;10.40;4.63;;;;;;;16.52;88.56;100630.84;4948009;28;20135;-76
2022/09/08 02:53:46;;;;;;;12.00;4.88;;;;;;;16.54;88.69;100628.94;4952188;28;20058;-76
2022/09/08 02:56:13;;;;;;;11.32;4.88;;;;;;;16.54;88.54;100629.81;4952883;28;20091;-76
2022/09/08 02:58:40;;;;;;;9.73;4.70;;;;;;;16.53;88.45;100617.44;4952303;28;20055;-78
2022/09/08 03:01:08;;;;;;;9.88;4.57;;;;;;;16.57;88.63;100628.75;4951883;28;20048;-77
2022/09/08 03:03:35;;;;;;;9.85;4.10;;;;;;;16.58;88.57;100623.34;4953318;28;20134;-77
2022/09/08 03:06:04;;;;;;;8.80;4.32;;;;;;;16.61;88.62;100631.16;4951510;28;20050;-78
2022/09/08 03:08:31;;;;;;;9.80;4.40;;;;;;;16.64;88.64;100630.09;4949851;28;20496;-75
2022/09/08 03:11:00;;;;;;;8.18;4.60;;;;;;;16.68;88.84;100626.34;4948456;28;20042;-75
2022/09/08 03:13:28;;;;;;;10.05;5.18;;;;;;;16.73;88.99;100626.94;4944728;28;20103;-75
2022/09/08 03:15:55;;;;;;;9.43;4.50;;;;;;;16.75;88.85;100626.81;4950251;28;20044;-75
2022/09/08 03:18:23;;;;;;;11.13;4.68;;;;;;;16.79;88.85;100628.34;4952129;28;20051;-74
2022/09/08 03:21:08;;;;;;;7.15;4.18;;;;;;;16.83;88.44;100635.22;4951345;28;20047;-74
2022/09/08 03:23:36;;;;;;;8.75;4.32;;;;;;;16.84;88.75;100628.09;4952465;28;20039;-75
2022/09/08 03:26:10;;;;;;;9.10;4.10;;;;;;;16.87;88.76;100622.56;4952450;28;20051;-75
2022/09/08 03:28:38;;;;;;;11.27;4.57;;;;;;;16.88;88.60;100605.63;4952859;28;20054;-75
2022/09/08 03:31:10;;;;;;;8.70;3.75;;;;;;;16.86;88.42;100613.72;4952244;28;20055;-74
2022/09/08 03:33:39;;;;;;;7.43;4.13;;;;;;;16.88;88.69;100616.28;4952464;28;20076;-75
2022/09/08 03:36:09;;;;;;;11.10;4.55;;;;;;;16.89;88.66;100608.19;4951821;28;20159;-75
2022/09/08 03:38:36;;;;;;;10.18;4.78;;;;;;;16.92;88.58;100610.69;4951574;28;20490;-74
2022/09/08 03:41:12;;;;;;;9.63;4.38;;;;;;;16.95;88.31;100611.50;4952468;28;20115;-74
2022/09/08 03:43:45;;;;;;;9.07;4.78;;;;;;;16.95;88.28;100606.16;4952252;28;20048;-75
2022/09/08 03:46:13;;;;;;;10.48;4.63;;;;;;;16.94;88.12;100607.94;4951994;28;20099;-74
2022/09/08 03:48:41;;;;;;;9.95;4.90;;;;;;;16.96;88.08;100619.38;4951391;28;20135;-74
2022/09/08 03:51:14;;;;;;;8.45;4.43;;;;;;;16.95;88.14;100615.00;4950701;28;20052;-75
2022/09/08 03:53:43;;;;;;;9.77;4.45;;;;;;;16.97;88.24;100618.44;4952378;28;20047;-74
2022/09/08 03:56:13;;;;;;;10.10;4.45;;;;;;;17.02;88.23;100632.34;4946455;28;20066;-74
2022/09/08 03:58:41;;;;;;;8.95;4.20;;;;;;;17.06;87.95;100639.16;4953178;28;20083;-74
2022/09/08 04:01:16;;;;;;;9.80;4.55;;;;;;;17.09;87.55;100648.81;4950221;28;20039;-75
2022/09/08 04:03:44;;;;;;;7.03;4.10;;;;;;;17.08;87.66;100649.75;4952087;28;20044;-75
2022/09/08 04:06:13;;;;;;;8.80;4.10;;;;;;;17.08;87.63;100661.25;4952070;28;20519;-75
2022/09/08 04:08:40;;;;;;;7.70;3.20;;;;;;;17.05;87.34;100645.44;4952244;28;20486;-74
2022/09/08 04:11:08;;;;;;;7.18;3.40;;;;;;;17.05;87.01;100649.94;4948131;28;20079;-75
2022/09/08 04:13:36;;;;;;;7.97;3.80;;;;;;;17.06;86.98;100655.16;4952394;28;20127;-74
2022/09/08 04:16:03;;;;;;;10.55;3.50;;;;;;;17.07;86.45;100650.69;4950346;28;20554;-75
2022/09/08 04:18:31;;;;;;;8.48;3.38;;;;;;;17.06;86.16;100656.97;4952617;28;20075;-79
2022/09/08 04:21:00;;;;;;;5.65;3.17;;;;;;;17.02;86.02;100656.28;4951085;28;20054;-76
2022/09/08 04:23:29;;;;;;;6.82;3.70;;;;;;;17.00;85.94;100650.19;4952343;28;20044;-76
2022/09/08 04:26:00;;;;;;;7.30;3.40;;;;;;;16.96;85.44;100659.31;4951797;28;20047;-75
2022/09/08 04:28:28;;;;;;;7.28;2.92;;;;;;;16.94;85.75;100661.19;4951432;28;20047;-73
2022/09/08 04:30:56;;;;;;;11.40;3.10;;;;;;;16.90;85.69;100660.50;4947179;28;20052;-79
2022/09/08 04:33:23;;;;;;;5.32;3.00;;;;;;;16.87;85.56;100665.16;4958284;28;20128;-78
2022/09/08 04:35:50;;;;;;;4.10;2.78;;;;;;;16.81;85.79;100677.03;4946384;28;20044;-77
2022/09/08 04:38:37;;;;;;;8.95;3.45;;;;;;;16.79;86.14;100697.56;4959873;28;20992;-72
2022/09/08 04:41:07;;;;;;;16.25;4.43;;;;;;;16.81;86.75;100710.78;4955077;28;20095;-73
2022/09/08 04:43:35;;;;;;;9.68;3.33;;;;;;;16.79;86.94;100697.56;4955538;28;20090;-71
2022/09/08 04:46:08;;;;;;;9.43;3.60;;;;;;;16.71;86.93;100667.88;4950895;28;20055;-73
2022/09/08 04:48:40;;;;;;;14.03;4.77;;;;;;;16.55;87.28;100699.84;4948010;28;20236;-73
2022/09/08 04:51:12;;;;;;;13.25;4.80;;;;;;;16.45;88.31;100713.66;4947158;28;20101;-74
2022/09/08 04:53:39;;;;;;;8.18;3.83;;;;;;;16.39;88.69;100705.19;4951250;28;20040;-75
2022/09/08 04:56:08;;;;;;;13.27;4.28;;;;;;;16.33;88.83;100690.41;4944818;28;20071;-75
2022/09/08 04:58:41;;;;;;;10.30;4.32;;;;;;;16.28;89.47;100700.47;4950765;28;20052;-75
2022/09/08 05:01:19;;;;;;;9.63;3.90;;;;;;;16.19;89.67;100687.72;4952497;28;20052;-74
2022/09/08 05:03:51;;;;;;;6.90;4.30;;;;;;;16.17;89.96;100701.09;4950904;28;20164;-75
2022/09/08 05:06:19;;;;;;;11.35;4.82;;;;;;;16.13;90.37;100695.06;4951266;28;20047;-75
2022/09/08 05:08:51;;;;;;;9.75;4.40;;;;;;;16.12;90.47;100690.72;4950963;28;20118;-73
2022/09/08 05:11:20;;;;;;;9.68;3.38;;;;;;;16.10;90.48;100692.59;4950674;28;20052;-73
2022/09/08 05:13:49;;;;;;;9.07;4.18;;;;;;;16.04;90.60;100694.75;4954198;28;20043;-74
2022/09/08 05:16:19;;;;;;;12.07;4.45;;;;;;;16.05;91.02;100683.16;4955076;28;20134;-73
2022/09/08 05:18:56;;;;;;;13.93;4.88;;;;;;;16.04;91.04;100684.94;4952418;28;20574;-73
2022/09/08 05:21:25;;;;;;;12.95;4.72;;;;;;;16.01;91.49;100694.91;4932024;28;20048;-73
2022/09/08 05:23:56;;;;;;;12.00;4.78;;;;;;;15.99;91.46;100687.03;4958537;28;20048;-72
2022/09/08 05:26:24;;;;;;;11.95;4.90;;;;;;;15.99;91.60;100685.22;4934527;28;20047;-72
2022/09/08 05:28:52;;;;;;;11.35;4.78;;;;;;;15.97;91.62;100684.44;4956061;28;20043;-72
2022/09/08 05:31:26;;;;;;;10.13;4.43;;;;;;;15.97;91.84;100689.75;4950316;28;20044;-73
2022/09/08 05:33:57;;;;;;;14.65;5.43;;;;;;;15.91;91.83;100690.09;4954290;28;20934;-72
2022/09/08 05:36:34;;;;;;;12.00;5.35;;;;;;;15.91;92.53;100683.94;4953522;28;20208;-73
2022/09/08 05:39:05;;;;;;;14.35;5.25;;;;;;;15.93;92.54;100682.91;4952611;28;20044;-73
2022/09/08 05:41:33;;;;;;;14.90;6.55;;;;;;;15.95;92.75;100677.50;4967206;28;20048;-73
2022/09/08 05:44:02;;;;;;;14.25;5.72;;;;;;;15.98;93.00;100677.31;4955637;28;20483;-73
2022/09/08 05:46:29;;;;;;;13.10;4.93;;;;;;;16.01;92.90;100673.63;4953468;28;20992;-73
2022/09/08 05:48:57;;;;;;;14.32;6.03;;;;;;;16.01;92.98;100677.16;4954730;28;20050;-73
2022/09/08 05:51:26;;;;;;;11.25;5.55;;;;;;;16.02;93.08;100676.22;4953218;28;20821;-73
2022/09/08 05:53:53;;;;;;;13.93;5.78;;;;;;;16.01;92.92;100679.81;4953905;28;20044;-73
2022/09/08 05:56:20;;;;;;;11.77;5.40;;;;;;;16.02;93.17;100689.53;4953399;28;20062;-73
2022/09/08 05:58:53;;;;;;;12.40;5.68;;;;;;;16.02;93.35;100686.88;4954323;28;20043;-73
2022/09/08 06:01:31;;;;;;;10.43;5.50;;;;;;;16.02;93.46;100689.53;4954362;28;20043;-73
2022/09/08 06:03:59;;;;;;;14.88;5.25;;;;;;;16.03;93.62;100690.38;4947494;28;20490;-73
2022/09/08 06:06:27;;;;;;;11.88;5.10;;;;;;;16.04;93.74;100695.59;4953211;28;20050;-73
2022/09/08 06:08:59;;;;;;;9.75;4.40;;;;;;;15.99;93.65;100695.84;4954235;28;20040;-73
2022/09/08 06:11:31;;;;;;;11.73;4.88;;;;;;;15.98;93.71;100694.13;4954384;28;20051;-73
2022/09/08 06:13:59;;;;;;;13.60;5.20;;;;;;;15.95;93.98;100702.28;4953752;28;20101;-73
2022/09/08 06:16:27;;;;;;;15.55;4.90;;;;;;;15.94;94.13;100705.88;4953998;28;20114;-73
2022/09/08 06:18:58;;;;;;;9.57;5.35;;;;;;;15.96;94.44;100697.81;4953638;28;20620;-73
2022/09/08 06:21:33;;;;;;;11.45;5.55;;;;;;;15.98;94.74;100702.09;4953949;28;20107;-73
2022/09/08 06:24:05;;;;;;;11.65;6.20;;;;;;;15.99;94.88;100708.28;4953426;28;20043;-73
2022/09/08 06:26:58;;;;;;;14.18;5.95;;;;;;;16.01;95.41;100709.06;4953295;28;20491;-73
2022/09/08 06:29:59;;;;;;;19.65;6.72;;;;;;;16.04;95.41;100711.53;4954102;28;20561;-73
2022/09/08 06:32:32;;;;;;;11.40;6.57;;;;;;;16.07;95.58;100710.53;4951254;28;20058;-73
2022/09/08 06:35:05;;;;;;;13.00;6.27;;;;;;;16.08;95.65;100709.56;4953889;28;20092;-73
2022/09/08 06:37:44;;;;;;;14.80;6.35;;;;;;;16.08;95.78;100712.22;4953633;28;20262;-73
2022/09/08 06:40:40;;;;;;;12.18;5.80;;;;;;;16.09;95.92;100704.19;4953687;28;20047;-73
2022/09/08 06:43:20;;;;;;;12.95;6.07;;;;;;;16.10;95.75;100700.59;4953779;28;20043;-73
2022/09/08 06:45:53;;;;;;;12.57;5.57;;;;;;;16.09;95.92;100690.00;4953751;28;20507;-73
2022/09/08 06:48:30;;;;;;;12.32;5.95;;;;;;;16.14;95.96;100710.09;4951696;28;20040;-73
2022/09/08 06:51:21;;;;;;;12.90;5.37;;;;;;;16.19;96.02;100708.97;4916333;28;1071010;-72
2022/09/08 06:54:10;;;;;;;10.73;5.75;;;;;;;16.19;95.65;100706.31;4954324;28;20040;-73
2022/09/08 06:56:47;;;;;;;11.60;4.72;;;;;;;16.21;95.71;100715.06;4954488;28;20054;-73
2022/09/08 07:00:09;;;;;;;13.90;5.07;;;;;;;16.20;95.56;100716.88;4954728;28;20073;-73
2022/09/08 07:03:16;;;;;;;11.80;4.93;;;;;;;16.17;95.37;100725.03;4953209;28;20050;-73
2022/09/08 07:06:02;;;;;;;13.48;5.05;;;;;;;16.15;95.42;100716.28;4954520;28;20039;-73
2022/09/08 07:09:13;;;;;;;13.45;5.28;;;;;;;16.17;95.67;100718.84;4954464;28;20048;-73
2022/09/08 07:11:47;;;;;;;12.00;5.78;;;;;;;16.19;95.76;100716.97;4954326;28;20043;-73
2022/09/08 07:14:54;;;;;;;12.82;5.97;;;;;;;16.23;96.09;100706.06;4954223;28;20048;-74
2022/09/08 07:17:34;;;;;;;10.70;6.00;;;;;;;16.25;95.90;100709.50;4953348;28;20043;-73
2022/09/08 07:20:10;;;;;;;15.10;6.30;;;;;;;16.27;96.22;100704.97;4952466;28;20040;-73
2022/09/08 07:22:39;;;;;;;;;;;;;;;16.31;96.17;100705.63;4954697;28;20056;-73
2022/09/08 07:25:32;;;;;;;12.75;6.35;;;;;;;16.33;96.07;100711.69;4954507;28;19926;-73
2022/09/08 07:28:20;;;;;;;14.18;6.13;;;;;;;16.35;95.95;100719.63;4953684;28;20491;-73
2022/09/08 07:31:20;;;;;;;12.43;5.88;;;;;;;16.38;95.99;100719.44;4954219;28;20048;-73
2022/09/08 07:34:05;;;;;;;13.80;7.20;;;;;;;16.39;96.16;100730.00;4952220;28;20144;-73
2022/09/08 07:36:50;;;;;;;14.63;7.50;;;;;;;16.40;96.26;100729.06;4953866;28;20103;-73
2022/09/08 07:39:38;;;;;;;14.48;6.68;;;;;;;16.46;96.41;100731.34;4953599;28;20051;-73
2022/09/08 07:42:13;;;;;;;12.35;6.60;;;;;;;16.49;96.25;100724.16;4953446;28;20043;-73
2022/09/08 07:44:46;;;;;;;12.75;6.63;;;;;;;16.52;96.19;100722.16;4953988;28;20043;-74
2022/09/08 07:47:57;;;;;;;16.60;7.82;;;;;;;16.57;96.11;100727.22;4953950;28;20047;-74
2022/09/08 07:50:56;;;;;;;14.68;7.90;;;;;;;16.61;96.09;100724.28;4953288;28;20045;-74
2022/09/08 07:53:38;;;;;;;14.50;8.10;;;;;;;16.64;95.97;100723.25;4953808;28;20040;-74
2022/09/08 07:56:37;;;;;;;12.35;8.48;;;;;;;16.67;95.87;100725.75;4953129;28;20043;-74
2022/09/08 07:59:47;;;;;;;14.10;8.15;;;;;;;16.74;95.73;100723.59;4953329;28;20044;-74
2022/09/08 08:02:46;;;;;;;13.90;8.93;;;;;;;16.82;95.54;100734.66;4953884;28;20052;-74
2022/09/08 08:05:27;;;;;;;14.80;9.07;;;;;;;16.91;95.27;100730.59;4952879;28;20862;-74
2022/09/08 08:08:20;;;;;;;15.52;8.95;;;;;;;17.00;94.99;100735.41;4953609;28;20040;-75
2022/09/08 08:11:24;;;;;;;14.73;8.77;;;;;;;17.14;94.98;100731.94;4953445;28;20044;-74
2022/09/08 08:14:19;;;;;;;14.80;8.82;;;;;;;17.36;94.45;100734.16;4953154;28;20054;-75
2022/09/08 08:17:23;;;;;;;12.18;8.23;;;;;;;17.52;93.88;100726.06;4953716;28;20506;-75
2022/09/08 08:20:21;;;;;;;10.77;8.53;;;;;;;17.63;93.62;100735.22;4951870;28;20111;-75
2022/09/08 08:23:05;;;;;;;12.98;8.43;;;;;;;17.66;93.71;100729.72;4953191;28;20270;-75
2022/09/08 08:25:58;;;;;;;11.27;8.40;;;;;;;17.77;92.86;100734.34;4953285;28;20047;-76
2022/09/08 08:28:25;;;;;;;15.15;9.65;;;;;;;17.92;92.61;100737.88;4952743;28;20118;-75
2022/09/08 08:31:04;;;;;;;15.20;9.85;;;;;;;18.13;91.88;100735.69;4953578;28;20040;-76
2022/09/08 08:33:41;;;;;;;10.75;9.57;;;;;;;18.34;91.62;100743.28;4952913;28;20047;-75
2022/09/08 08:36:19;;;;;;;13.82;9.88;;;;;;;18.51;90.30;100736.84;4952248;28;20793;-75
2022/09/08 08:38:54;;;;;;;15.02;9.80;;;;;;;18.58;89.45;100735.50;4952856;28;20127;-76
2022/09/08 08:42:46;;;;;;;9.68;7.90;;;;;;;18.72;88.07;100732.75;4953189;28;20040;-75
2022/09/08 08:45:55;;;;;;;8.77;6.90;;;;;;;18.76;87.45;100733.41;4874399;29;20126;-75
2022/09/08 08:49:06;;;;;;;11.82;7.43;;;;;;;18.73;86.21;100737.13;4859800;29;20066;-75
2022/09/08 08:52:00;;;;;;;12.23;7.80;;;;;;;18.70;84.10;100736.47;4932797;29;20477;-75
2022/09/08 08:55:08;;;;;;;13.05;8.60;;;;;;;18.72;85.52;100732.75;4950624;28;20460;-74
2022/09/08 08:57:47;;;;;;;11.77;7.63;;;;;;;18.83;85.71;100737.38;4952866;28;20051;-75
2022/09/08 09:00:28;;;;;;;10.20;6.85;;;;;;;18.92;86.40;100744.78;4952369;28;20075;-75
2022/09/08 09:03:26;;;;;;;11.55;6.28;;;;;;;19.21;84.70;100744.66;4953010;28;20070;-74
2022/09/08 09:06:13;;;;;;;8.65;5.30;;;;;;;19.43;82.44;100735.16;4952518;28;20838;-74
2022/09/08 09:09:11;;;;;;;6.60;5.28;;;;;;;19.69;82.37;100738.69;4949995;28;20534;-74
2022/09/08 09:11:51;;;;;;;7.68;4.80;;;;;;;20.00;78.76;100736.53;4952629;28;20043;-75
2022/09/08 09:14:51;;;;;;;10.65;5.80;;;;;;;20.12;77.71;100741.97;4952293;28;20035;-74
2022/09/08 09:17:58;;;;;;;7.85;5.30;;;;;;;20.12;77.13;100728.59;4951046;28;20095;-74
2022/09/08 09:20:49;;;;;;;11.70;5.72;;;;;;;20.20;78.88;100728.00;4952136;28;20036;-75
2022/09/08 09:24:23;;;;;;;13.25;5.38;;;;;;;20.41;78.37;100726.44;4952177;28;20126;-75
2022/09/08 09:26:53;;;;;;;10.10;5.75;;;;;;;20.43;79.26;100724.50;4922712;28;20491;-75
2022/09/08 09:29:25;;;;;;;11.10;5.68;;;;;;;20.53;75.43;100723.81;4952226;28;20047;-74
2022/09/08 09:32:14;;;;;;;8.55;5.60;;;;;;;20.33;76.42;100728.81;4952586;28;20044;-75
2022/09/08 09:34:53;;;;;;;7.88;4.28;;;;;;;20.20;75.67;100731.56;4951945;28;20043;-75
2022/09/08 09:37:54;;;;;;;7.78;3.13;;;;;;;20.21;77.00;100730.59;4935421;28;20811;-74
2022/09/08 09:41:01;;;;;;;9.85;3.20;;;;;;;20.26;77.08;100725.75;4950568;28;20040;-75
2022/09/08 09:44:15;;;;;;;3.78;1.42;;;;;;;20.41;70.20;100726.44;4951832;28;20119;-75
2022/09/08 09:46:55;;;;;;;3.08;1.67;;;;;;;20.46;72.49;100726.09;4951580;28;20055;-74
2022/09/08 09:49:50;;;;;;;3.05;2.08;;;;;;;20.51;71.75;100717.72;4951847;28;20126;-75
2022/09/08 09:52:31;;;;;;;4.40;2.10;;;;;;;20.66;72.62;100721.94;4950730;28;20060;-74
2022/09/08 09:55:07;;;;;;;5.63;2.08;;;;;;;21.03;70.05;100721.03;4949902;28;20846;-74
2022/09/08 09:57:52;;;;;;;3.70;2.00;;;;;;;21.22;72.28;100721.31;4951684;28;20048;-75
2022/09/08 10:00:24;;;;;;;2.95;1.45;;;;;;;21.31;68.74;100719.75;4953882;28;20126;-75
2022/09/08 10:03:15;;;;;;;1.52;1.05;;;;;;;21.37;69.78;100716.59;4955578;28;20507;-75
2022/09/08 10:06:11;;;;;;;3.13;1.10;;;;;;;21.33;67.84;100711.56;4954488;28;20071;-74
2022/09/08 10:09:18;;;;;;;10.73;1.63;;;;;;;21.05;68.29;100706.53;4952303;28;20052;-75
2022/09/08 10:12:01;;;;;;;6.50;1.10;;;;;;;21.03;67.68;100710.31;4932112;28;20058;-76
2022/09/08 10:15:03;;;;;;;2.10;1.00;;;;;;;21.06;68.99;100710.91;4954702;28;20050;-74
2022/09/08 10:18:14;;;;;;;4.32;1.45;;;;;;;20.97;70.21;100710.75;4954796;28;20047;-74
2022/09/08 10:21:16;;;;;;;7.97;1.63;;;;;;;20.83;70.28;100711.81;4953634;28;20040;-75
2022/09/08 10:24:04;;;;;;;7.45;1.42;;;;;;;20.70;70.51;100715.41;4953889;28;20052;-75
2022/09/08 10:26:50;;;;;;;3.05;1.20;;;;;;;20.68;70.54;100711.09;4954467;28;20103;-74
2022/09/08 10:30:13;;;;;;;8.20;1.50;;;;;;;20.89;68.71;100698.81;4953685;28;20624;-75
2022/09/08 10:33:20;;;;;;;12.82;2.33;;;;;;;21.25;67.66;100699.63;4949275;28;20097;-75
2022/09/08 10:35:51;;;;;;;11.82;1.45;;;;;;;21.24;66.45;100707.78;4952186;28;20055;-76
2022/09/08 10:38:48;;;;;;;19.48;2.00;;;;;;;21.10;67.05;100704.34;4954204;28;20519;-74
2022/09/08 10:41:52;;;;;;;6.43;1.00;;;;;;;20.96;66.49;100699.19;4954693;28;20048;-75
2022/09/08 10:44:22;;;;;;;9.10;1.30;;;;;;;20.83;67.69;100704.63;4954491;28;20032;-75
2022/09/08 10:47:37;;;;;;;15.05;1.70;;;;;;;20.95;68.95;100710.88;4954694;28;20039;-76
2022/09/08 10:50:23;;;;;;;13.98;1.55;;;;;;;21.30;64.62;100703.75;4953516;28;20071;-74
2022/09/08 10:53:45;;;;;;;7.75;1.17;;;;;;;21.23;66.88;100703.38;4953951;28;20063;-75
2022/09/08 10:56:25;;;;;;;4.47;1.08;;;;;;;21.24;66.15;100705.09;4954586;28;20519;-76
2022/09/08 10:59:21;;;;;;;5.78;1.20;;;;;;;21.27;67.29;100702.19;4954817;28;20106;-75
2022/09/08 11:02:24;;;;;;;18.13;1.92;;;;;;;21.20;65.24;100709.84;4954284;28;20555;-76
2022/09/08 11:05:48;;;;;;;16.45;3.13;;;;;;;21.37;66.73;100705.84;4953910;28;20051;-76
2022/09/08 11:08:43;;;;;;;4.63;1.00;;;;;;;21.38;64.32;100694.16;4952092;28;20127;-74
2022/09/08 11:11:47;;;;;;;;;;;;;;;21.34;66.77;100700.72;4953408;28;20110;-75
2022/09/08 11:14:44;;;;;;;4.68;1.02;;;;;;;21.84;65.90;100697.72;4954158;28;19938;-74
2022/09/08 11:17:21;;;;;;;6.88;1.00;;;;;;;22.07;63.81;100697.72;4953997;28;20495;-74
2022/09/08 11:20:02;;;;;;;8.80;1.10;;;;;;;22.38;60.84;100692.50;4954100;28;20051;-74
2022/09/08 11:23:07;;;;;;;6.93;1.20;;;;;;;22.65;62.18;100689.34;4953269;28;20040;-74
2022/09/08 11:25:56;;;;;;;5.25;1.15;;;;;;;22.43;61.24;100693.00;4947747;28;20054;-75
2022/09/08 11:28:48;;;;;;;4.15;0.93;;;;;;;22.03;59.01;100697.06;4954095;28;20047;-75
2022/09/08 11:31:31;;;;;;;7.32;1.10;;;;;;;21.91;60.42;100694.53;4954334;28;20050;-74
2022/09/08 11:34:29;;;;;;;5.85;1.30;;;;;;;21.85;62.18;100694.06;4954087;28;20044;-74
2022/09/08 11:37:28;;;;;;;8.63;1.45;;;;;;;22.00;60.01;100689.28;4951293;28;20842;-74
2022/09/08 11:40:13;;;;;;;4.88;1.15;;;;;;;22.18;60.47;100694.13;4951208;28;20047;-74
2022/09/08 11:43:19;;;;;;;20.13;2.40;;;;;;;22.36;60.20;100690.91;4954593;28;20099;-74
2022/09/08 11:46:57;;;;;;;5.38;1.20;;;;;;;22.19;56.04;100688.63;4954124;28;20048;-74
2022/09/08 11:49:33;;;;;;;3.13;0.80;;;;;;;22.19;57.20;100677.88;4865219;29;20045;-74
2022/09/08 11:53:03;;;;;;;2.50;0.82;;;;;;;22.44;56.05;100680.41;4859959;29;20057;-74
2022/09/08 11:56:48;;;;;;;4.38;1.15;;;;;;;22.47;56.47;100677.47;4950326;28;20099;-73
2022/09/08 11:59:49;;;;;;;6.40;1.20;;;;;;;22.44;57.30;100675.03;4876021;29;20877;-73
2022/09/08 12:03:02;;;;;;;5.20;1.10;;;;;;;22.56;57.93;100682.06;4953642;28;20046;-74
2022/09/08 12:06:04;;;;;;;6.85;1.00;;;;;;;23.04;57.98;100671.84;4935780;28;20143;-74
2022/09/08 12:09:06;;;;;;;4.40;0.90;;;;;;;23.25;52.51;100653.00;4952656;28;20058;-72
2022/09/08 12:12:01;;;;;;;5.25;1.00;;;;;;;23.53;55.38;100666.72;4952251;28;20102;-73
2022/09/08 12:14:53;;;;;;;3.83;1.00;;;;;;;23.82;54.11;100661.44;4946712;28;20043;-74
2022/09/08 12:17:41;;;;;;;11.68;1.20;;;;;;;24.01;52.73;100663.34;4949157;28;20075;-74
2022/09/08 12:21:15;;;;;;;7.68;1.08;;;;;;;24.00;52.80;100667.06;4950307;28;20046;-75
2022/09/08 12:23:58;;;;;;;6.57;1.10;;;;;;;23.64;55.64;100663.94;4945305;28;20063;-73
2022/09/08 12:26:41;;;;;;;9.25;1.38;;;;;;;23.40;53.75;100664.25;4951750;28;20058;-74
2022/09/08 12:29:41;;;;;;;8.30;1.45;;;;;;;23.70;54.71;100655.34;4961086;28;20047;-74
2022/09/08 12:32:47;;;;;;;13.60;2.33;;;;;;;24.17;50.04;100651.19;4950589;28;20503;-73